sensor_id;sensor_type;location;lat;lon;timestamp;pressure;altitude;pressure_sealevel;temperature;humidity
8140;BME280;4111;50.972;7.072;2024-03-17T00:02:17;101924.69;;;7.46;98.49
8140;BME280;4111;50.972;7.072;2024-03-17T00:04:43;101919.97;;;7.26;98.41
8140;BME280;4111;50.972;7.072;2024-03-17T00:07:10;101910.34;;;7.17;98.83
8140;BME280;4111;50.972;7.072;2024-03-17T00:09:35;101922.66;;;7.26;98.46
8140;BME280;4111;50.972;7.072;2024-03-17T00:12:00;101910.44;;;7.30;98.74
8140;BME280;4111;50.972;7.072;2024-03-17T00:14:26;101910.00;;;7.27;98.65
8140;BME280;4111;50.972;7.072;2024-03-17T00:16:53;101912.66;;;7.20;98.70
8140;BME280;4111;50.972;7.072;2024-03-17T00:19:19;101905.81;;;7.24;98.70
8140;BME280;4111;50.972;7.072;2024-03-17T00:21:48;101895.88;;;7.25;98.67
8140;BME280;4111;50.972;7.072;2024-03-17T00:24:16;101900.41;;;7.24;98.54
8140;BME280;4111;50.972;7.072;2024-03-17T00:26:42;101895.00;;;7.24;98.98
8140;BME280;4111;50.972;7.072;2024-03-17T00:29:07;101895.88;;;7.25;99.07
8140;BME280;4111;50.972;7.072;2024-03-17T00:31:34;101894.00;;;7.25;99.18
8140;BME280;4111;50.972;7.072;2024-03-17T00:33:59;101890.88;;;7.28;99.16
8140;BME280;4111;50.972;7.072;2024-03-17T00:36:25;101891.09;;;7.27;98.90
8140;BME280;4111;50.972;7.072;2024-03-17T00:38:50;101887.75;;;7.25;98.90
8140;BME280;4111;50.972;7.072;2024-03-17T00:41:17;101887.13;;;7.23;98.95
8140;BME280;4111;50.972;7.072;2024-03-17T00:43:44;101893.16;;;7.25;98.64
8140;BME280;4111;50.972;7.072;2024-03-17T00:46:10;101888.34;;;7.20;98.55
8140;BME280;4111;50.972;7.072;2024-03-17T00:48:35;101886.69;;;7.19;98.20
8140;BME280;4111;50.972;7.072;2024-03-17T00:51:01;101881.91;;;7.21;98.88
8140;BME280;4111;50.972;7.072;2024-03-17T00:53:28;101880.88;;;7.22;98.56
8140;BME280;4111;50.972;7.072;2024-03-17T00:55:55;101873.50;;;7.09;98.71
8140;BME280;4111;50.972;7.072;2024-03-17T00:58:23;101876.41;;;6.86;99.09
8140;BME280;4111;50.972;7.072;2024-03-17T01:00:49;101866.84;;;6.84;99.52
8140;BME280;4111;50.972;7.072;2024-03-17T01:03:15;101865.66;;;6.93;99.60
8140;BME280;4111;50.972;7.072;2024-03-17T01:05:41;101864.06;;;6.99;99.46
8140;BME280;4111;50.972;7.072;2024-03-17T01:08:09;101867.03;;;7.04;99.50
8140;BME280;4111;50.972;7.072;2024-03-17T01:10:41;101856.19;;;6.97;99.26
8140;BME280;4111;50.972;7.072;2024-03-17T01:13:07;101862.41;;;6.98;99.54
8140;BME280;4111;50.972;7.072;2024-03-17T01:15:35;101866.19;;;7.03;99.60
8140;BME280;4111;50.972;7.072;2024-03-17T01:18:00;101855.16;;;7.05;99.84
8140;BME280;4111;50.972;7.072;2024-03-17T01:20:26;101855.81;;;7.07;99.69
8140;BME280;4111;50.972;7.072;2024-03-17T01:22:52;101855.38;;;7.03;99.63
8140;BME280;4111;50.972;7.072;2024-03-17T01:25:18;101853.50;;;7.04;99.60
8140;BME280;4111;50.972;7.072;2024-03-17T01:27:43;101851.44;;;7.06;99.31
8140;BME280;4111;50.972;7.072;2024-03-17T01:30:10;101851.72;;;7.11;99.73
8140;BME280;4111;50.972;7.072;2024-03-17T01:32:36;101850.41;;;7.07;99.82
8140;BME280;4111;50.972;7.072;2024-03-17T01:35:01;101847.50;;;7.08;99.42
8140;BME280;4111;50.972;7.072;2024-03-17T01:37:27;101847.50;;;7.08;99.26
8140;BME280;4111;50.972;7.072;2024-03-17T01:39:57;101843.81;;;7.09;99.88
8140;BME280;4111;50.972;7.072;2024-03-17T01:42:23;101834.66;;;7.10;99.85
8140;BME280;4111;50.972;7.072;2024-03-17T01:44:49;101842.91;;;7.02;99.68
8140;BME280;4111;50.972;7.072;2024-03-17T01:47:17;101837.47;;;6.95;99.52
8140;BME280;4111;50.972;7.072;2024-03-17T01:49:45;101839.91;;;6.90;99.90
8140;BME280;4111;50.972;7.072;2024-03-17T01:52:14;101835.44;;;6.54;99.96
8140;BME280;4111;50.972;7.072;2024-03-17T01:54:40;101837.31;;;6.54;100.00
8140;BME280;4111;50.972;7.072;2024-03-17T01:57:06;101830.31;;;6.60;100.00
8140;BME280;4111;50.972;7.072;2024-03-17T01:59:31;101832.22;;;6.66;100.00
8140;BME280;4111;50.972;7.072;2024-03-17T02:01:58;101824.78;;;6.68;100.00
8140;BME280;4111;50.972;7.072;2024-03-17T02:04:23;101821.66;;;6.71;100.00
8140;BME280;4111;50.972;7.072;2024-03-17T02:06:49;101824.19;;;6.72;100.00
8140;BME280;4111;50.972;7.072;2024-03-17T02:09:14;101821.03;;;6.69;100.00
8140;BME280;4111;50.972;7.072;2024-03-17T02:11:40;101812.56;;;6.72;100.00
8140;BME280;4111;50.972;7.072;2024-03-17T02:14:06;101820.66;;;6.72;100.00
8140;BME280;4111;50.972;7.072;2024-03-17T02:16:33;101819.38;;;6.68;100.00
8140;BME280;4111;50.972;7.072;2024-03-17T02:18:58;101820.38;;;6.67;99.87
8140;BME280;4111;50.972;7.072;2024-03-17T02:21:25;101821.81;;;6.63;100.00
8140;BME280;4111;50.972;7.072;2024-03-17T02:23:54;101820.78;;;6.64;100.00
8140;BME280;4111;50.972;7.072;2024-03-17T02:26:20;101819.50;;;6.60;100.00
8140;BME280;4111;50.972;7.072;2024-03-17T02:28:47;101827.06;;;6.49;100.00
8140;BME280;4111;50.972;7.072;2024-03-17T02:31:14;101822.44;;;6.43;100.00
8140;BME280;4111;50.972;7.072;2024-03-17T02:33:41;101823.34;;;6.50;100.00
8140;BME280;4111;50.972;7.072;2024-03-17T02:36:06;101823.59;;;6.55;100.00
8140;BME280;4111;50.972;7.072;2024-03-17T02:38:36;101828.34;;;6.53;100.00
8140;BME280;4111;50.972;7.072;2024-03-17T02:41:20;101826.97;;;6.36;100.00
8140;BME280;4111;50.972;7.072;2024-03-17T02:43:46;101826.75;;;6.38;100.00
8140;BME280;4111;50.972;7.072;2024-03-17T02:46:16;101829.00;;;6.34;100.00
8140;BME280;4111;50.972;7.072;2024-03-17T02:48:43;101827.69;;;6.30;100.00
8140;BME280;4111;50.972;7.072;2024-03-17T02:51:22;101835.53;;;6.25;100.00
8140;BME280;4111;50.972;7.072;2024-03-17T02:53:49;101826.28;;;6.12;100.00
8140;BME280;4111;50.972;7.072;2024-03-17T02:56:15;101825.72;;;6.02;100.00
8140;BME280;4111;50.972;7.072;2024-03-17T02:58:42;101829.38;;;5.94;100.00
8140;BME280;4111;50.972;7.072;2024-03-17T03:01:08;101829.19;;;5.96;100.00
8140;BME280;4111;50.972;7.072;2024-03-17T03:03:35;101830.69;;;5.99;100.00
8140;BME280;4111;50.972;7.072;2024-03-17T03:06:01;101834.13;;;5.92;100.00
8140;BME280;4111;50.972;7.072;2024-03-17T03:08:30;101830.22;;;5.80;100.00
8140;BME280;4111;50.972;7.072;2024-03-17T03:10:56;101829.66;;;5.85;100.00
8140;BME280;4111;50.972;7.072;2024-03-17T03:13:21;101832.06;;;5.80;100.00
8140;BME280;4111;50.972;7.072;2024-03-17T03:15:51;101826.69;;;5.80;100.00
8140;BME280;4111;50.972;7.072;2024-03-17T03:18:16;101823.34;;;5.78;100.00
8140;BME280;4111;50.972;7.072;2024-03-17T03:20:42;101824.81;;;5.80;100.00
8140;BME280;4111;50.972;7.072;2024-03-17T03:23:09;101820.94;;;5.83;100.00
8140;BME280;4111;50.972;7.072;2024-03-17T03:25:34;101822.50;;;5.77;100.00
8140;BME280;4111;50.972;7.072;2024-03-17T03:28:00;101816.38;;;5.68;100.00
8140;BME280;4111;50.972;7.072;2024-03-17T03:30:25;101819.53;;;5.72;100.00
8140;BME280;4111;50.972;7.072;2024-03-17T03:32:53;101822.88;;;5.74;100.00
8140;BME280;4111;50.972;7.072;2024-03-17T03:35:18;101814.44;;;5.62;100.00
8140;BME280;4111;50.972;7.072;2024-03-17T03:37:45;101817.06;;;5.55;100.00
8140;BME280;4111;50.972;7.072;2024-03-17T03:40:10;101812.38;;;5.64;100.00
8140;BME280;4111;50.972;7.072;2024-03-17T03:42:46;101816.94;;;5.64;100.00
8140;BME280;4111;50.972;7.072;2024-03-17T03:45:12;101803.66;;;5.62;100.00
8140;BME280;4111;50.972;7.072;2024-03-17T03:47:42;101810.72;;;5.63;100.00
8140;BME280;4111;50.972;7.072;2024-03-17T03:50:14;101819.66;;;5.64;100.00
8140;BME280;4111;50.972;7.072;2024-03-17T03:52:39;101820.97;;;5.53;100.00
8140;BME280;4111;50.972;7.072;2024-03-17T03:55:07;101819.19;;;5.45;100.00
8140;BME280;4111;50.972;7.072;2024-03-17T03:57:38;101812.88;;;5.38;100.00
8140;BME280;4111;50.972;7.072;2024-03-17T04:00:04;101824.13;;;5.42;100.00
8140;BME280;4111;50.972;7.072;2024-03-17T04:02:38;101824.47;;;5.39;100.00
8140;BME280;4111;50.972;7.072;2024-03-17T04:05:04;101824.47;;;5.39;100.00
8140;BME280;4111;50.972;7.072;2024-03-17T04:07:30;101819.47;;;5.35;100.00
8140;BME280;4111;50.972;7.072;2024-03-17T04:09:55;101810.09;;;5.31;100.00
8140;BME280;4111;50.972;7.072;2024-03-17T04:12:21;101811.41;;;5.35;100.00
8140;BME280;4111;50.972;7.072;2024-03-17T04:14:47;101807.41;;;5.31;100.00
8140;BME280;4111;50.972;7.072;2024-03-17T04:17:18;101808.59;;;5.29;100.00
8140;BME280;4111;50.972;7.072;2024-03-17T04:19:45;101806.19;;;5.34;100.00
8140;BME280;4111;50.972;7.072;2024-03-17T04:22:11;101806.28;;;5.41;100.00
8140;BME280;4111;50.972;7.072;2024-03-17T04:24:36;101797.53;;;5.39;100.00
8140;BME280;4111;50.972;7.072;2024-03-17T04:27:02;101798.41;;;5.39;100.00
8140;BME280;4111;50.972;7.072;2024-03-17T04:29:29;101795.25;;;5.35;100.00
8140;BME280;4111;50.972;7.072;2024-03-17T04:31:55;101788.81;;;5.36;100.00
8140;BME280;4111;50.972;7.072;2024-03-17T04:34:20;101797.53;;;5.39;100.00
8140;BME280;4111;50.972;7.072;2024-03-17T04:36:46;101788.16;;;5.34;100.00
8140;BME280;4111;50.972;7.072;2024-03-17T04:39:12;101796.88;;;5.36;100.00
8140;BME280;4111;50.972;7.072;2024-03-17T04:41:37;101794.31;;;5.43;100.00
8140;BME280;4111;50.972;7.072;2024-03-17T04:44:06;101791.78;;;5.42;100.00
8140;BME280;4111;50.972;7.072;2024-03-17T04:46:32;101783.44;;;5.36;100.00
8140;BME280;4111;50.972;7.072;2024-03-17T04:48:58;101783.25;;;5.38;100.00
8140;BME280;4111;50.972;7.072;2024-03-17T04:51:23;101782.03;;;5.41;100.00
8140;BME280;4111;50.972;7.072;2024-03-17T04:53:49;101780.53;;;5.23;100.00
8140;BME280;4111;50.972;7.072;2024-03-17T04:56:14;101781.28;;;5.02;100.00
8140;BME280;4111;50.972;7.072;2024-03-17T04:58:40;101778.41;;;5.04;100.00
8140;BME280;4111;50.972;7.072;2024-03-17T05:01:07;101776.53;;;5.19;100.00
8140;BME280;4111;50.972;7.072;2024-03-17T05:03:33;101777.56;;;5.33;100.00
8140;BME280;4111;50.972;7.072;2024-03-17T05:06:00;101772.28;;;5.40;100.00
8140;BME280;4111;50.972;7.072;2024-03-17T05:08:27;101765.50;;;5.44;100.00
8140;BME280;4111;50.972;7.072;2024-03-17T05:11:03;101759.53;;;5.48;100.00
8140;BME280;4111;50.972;7.072;2024-03-17T05:13:34;101757.13;;;5.53;100.00
8140;BME280;4111;50.972;7.072;2024-03-17T05:16:00;101753.41;;;5.54;100.00
8140;BME280;4111;50.972;7.072;2024-03-17T05:18:26;101753.63;;;5.53;100.00
8140;BME280;4111;50.972;7.072;2024-03-17T05:21:05;101771.78;;;5.51;100.00
8140;BME280;4111;50.972;7.072;2024-03-17T05:23:33;101769.50;;;5.48;100.00
8140;BME280;4111;50.972;7.072;2024-03-17T05:25:59;101770.91;;;5.44;100.00
8140;BME280;4111;50.972;7.072;2024-03-17T05:28:25;101771.53;;;5.46;100.00
8140;BME280;4111;50.972;7.072;2024-03-17T05:30:52;101766.97;;;5.46;100.00
8140;BME280;4111;50.972;7.072;2024-03-17T05:33:21;101763.28;;;5.47;100.00
8140;BME280;4111;50.972;7.072;2024-03-17T05:35:54;101772.09;;;5.56;100.00
8140;BME280;4111;50.972;7.072;2024-03-17T05:38:30;101765.47;;;5.59;100.00
8140;BME280;4111;50.972;7.072;2024-03-17T05:41:00;101765.81;;;5.70;100.00
8140;BME280;4111;50.972;7.072;2024-03-17T05:43:27;101772.72;;;5.73;100.00
8140;BME280;4111;50.972;7.072;2024-03-17T05:45:54;101771.31;;;5.77;100.00
8140;BME280;4111;50.972;7.072;2024-03-17T05:48:21;101767.84;;;5.83;100.00
8140;BME280;4111;50.972;7.072;2024-03-17T05:50:47;101766.63;;;5.86;100.00
8140;BME280;4111;50.972;7.072;2024-03-17T05:53:13;101763.09;;;5.85;100.00
8140;BME280;4111;50.972;7.072;2024-03-17T05:55:38;101776.13;;;5.82;100.00
8140;BME280;4111;50.972;7.072;2024-03-17T05:58:06;101775.53;;;5.86;100.00
8140;BME280;4111;50.972;7.072;2024-03-17T06:00:35;101772.66;;;5.88;100.00
8140;BME280;4111;50.972;7.072;2024-03-17T06:03:00;101776.59;;;5.85;100.00
8140;BME280;4111;50.972;7.072;2024-03-17T06:05:27;101775.75;;;5.85;100.00
8140;BME280;4111;50.972;7.072;2024-03-17T06:07:52;101771.84;;;5.87;100.00
8140;BME280;4111;50.972;7.072;2024-03-17T06:10:17;101779.16;;;5.93;100.00
8140;BME280;4111;50.972;7.072;2024-03-17T06:12:43;101774.50;;;6.02;100.00
8140;BME280;4111;50.972;7.072;2024-03-17T06:15:09;101773.03;;;6.00;100.00
8140;BME280;4111;50.972;7.072;2024-03-17T06:17:34;101780.94;;;6.01;100.00
8140;BME280;4111;50.972;7.072;2024-03-17T06:20:00;101767.19;;;5.96;100.00
8140;BME280;4111;50.972;7.072;2024-03-17T06:22:28;101760.97;;;5.95;100.00
8140;BME280;4111;50.972;7.072;2024-03-17T06:24:53;101757.69;;;6.00;100.00
8140;BME280;4111;50.972;7.072;2024-03-17T06:27:19;101743.47;;;6.06;100.00
8140;BME280;4111;50.972;7.072;2024-03-17T06:29:44;101740.81;;;6.13;100.00
8140;BME280;4111;50.972;7.072;2024-03-17T06:32:11;101734.19;;;6.15;100.00
8140;BME280;4111;50.972;7.072;2024-03-17T06:34:37;101743.38;;;6.21;100.00
8140;BME280;4111;50.972;7.072;2024-03-17T06:37:02;101746.22;;;6.34;100.00
8140;BME280;4111;50.972;7.072;2024-03-17T06:39:28;101732.78;;;6.41;100.00
8140;BME280;4111;50.972;7.072;2024-03-17T06:41:53;101738.66;;;6.51;100.00
8140;BME280;4111;50.972;7.072;2024-03-17T06:44:19;101736.22;;;6.57;100.00
8140;BME280;4111;50.972;7.072;2024-03-17T06:46:49;101732.09;;;6.61;100.00
8140;BME280;4111;50.972;7.072;2024-03-17T06:49:14;101733.63;;;6.70;100.00
8140;BME280;4111;50.972;7.072;2024-03-17T06:51:40;101743.03;;;6.81;100.00
8140;BME280;4111;50.972;7.072;2024-03-17T06:54:06;101732.34;;;6.94;100.00
8140;BME280;4111;50.972;7.072;2024-03-17T06:56:33;101728.69;;;7.08;100.00
8140;BME280;4111;50.972;7.072;2024-03-17T06:58:59;101727.09;;;7.21;100.00
8140;BME280;4111;50.972;7.072;2024-03-17T07:01:24;101734.78;;;7.17;99.72
8140;BME280;4111;50.972;7.072;2024-03-17T07:03:50;101727.47;;;7.11;99.78
8140;BME280;4111;50.972;7.072;2024-03-17T07:06:15;101728.31;;;7.18;99.50
8140;BME280;4111;50.972;7.072;2024-03-17T07:08:41;101724.81;;;7.24;99.38
8140;BME280;4111;50.972;7.072;2024-03-17T07:11:07;101728.41;;;7.31;99.40
8140;BME280;4111;50.972;7.072;2024-03-17T07:13:34;101727.78;;;7.36;99.28
8140;BME280;4111;50.972;7.072;2024-03-17T07:16:01;101716.59;;;7.46;99.28
8140;BME280;4111;50.972;7.072;2024-03-17T07:18:28;101713.31;;;7.50;99.21
8140;BME280;4111;50.972;7.072;2024-03-17T07:21:01;101710.00;;;7.55;99.42
8140;BME280;4111;50.972;7.072;2024-03-17T07:23:29;101711.50;;;7.71;99.53
8140;BME280;4111;50.972;7.072;2024-03-17T07:25:56;101705.28;;;7.84;99.15
8140;BME280;4111;50.972;7.072;2024-03-17T07:28:23;101710.75;;;8.04;98.80
8140;BME280;4111;50.972;7.072;2024-03-17T07:30:50;101713.28;;;8.32;98.14
8140;BME280;4111;50.972;7.072;2024-03-17T07:33:16;101720.16;;;8.54;97.41
8140;BME280;4111;50.972;7.072;2024-03-17T07:35:58;101717.44;;;8.74;96.59
8140;BME280;4111;50.972;7.072;2024-03-17T07:38:27;101706.59;;;8.81;95.89
8140;BME280;4111;50.972;7.072;2024-03-17T07:41:03;101709.94;;;8.57;94.62
8140;BME280;4111;50.972;7.072;2024-03-17T07:43:37;101704.13;;;8.60;94.17
8140;BME280;4111;50.972;7.072;2024-03-17T07:46:11;101713.25;;;8.85;94.06
8140;BME280;4111;50.972;7.072;2024-03-17T07:48:40;101708.63;;;9.06;94.23
8140;BME280;4111;50.972;7.072;2024-03-17T07:51:08;101719.75;;;9.43;93.68
8140;BME280;4111;50.972;7.072;2024-03-17T07:53:36;101728.25;;;9.60;92.36
8140;BME280;4111;50.972;7.072;2024-03-17T07:56:06;101732.72;;;9.79;90.95
8140;BME280;4111;50.972;7.072;2024-03-17T07:58:35;101743.22;;;10.07;90.75
8140;BME280;4111;50.972;7.072;2024-03-17T08:01:05;101735.63;;;10.16;89.62
8140;BME280;4111;50.972;7.072;2024-03-17T08:03:33;101737.19;;;10.05;87.15
8140;BME280;4111;50.972;7.072;2024-03-17T08:06:00;101738.56;;;10.15;87.06
8140;BME280;4111;50.972;7.072;2024-03-17T08:08:27;101738.94;;;10.25;86.76
8140;BME280;4111;50.972;7.072;2024-03-17T08:10:52;101738.53;;;10.21;86.08
8140;BME280;4111;50.972;7.072;2024-03-17T08:13:18;101734.19;;;10.45;86.87
8140;BME280;4111;50.972;7.072;2024-03-17T08:15:45;101724.06;;;10.59;85.50
8140;BME280;4111;50.972;7.072;2024-03-17T08:18:11;101732.31;;;10.71;85.22
8140;BME280;4111;50.972;7.072;2024-03-17T08:20:41;101738.16;;;10.68;84.17
8140;BME280;4111;50.972;7.072;2024-03-17T08:23:08;101746.22;;;10.56;83.85
8140;BME280;4111;50.972;7.072;2024-03-17T08:25:34;101738.63;;;10.65;83.57
8140;BME280;4111;50.972;7.072;2024-03-17T08:28:03;101741.25;;;10.78;83.22
8140;BME280;4111;50.972;7.072;2024-03-17T08:30:29;101738.84;;;10.88;82.47
8140;BME280;4111;50.972;7.072;2024-03-17T08:32:59;101724.94;;;10.97;82.30
8140;BME280;4111;50.972;7.072;2024-03-17T08:35:24;101730.47;;;10.90;81.21
8140;BME280;4111;50.972;7.072;2024-03-17T08:37:50;101732.22;;;10.78;80.86
8140;BME280;4111;50.972;7.072;2024-03-17T08:40:22;101737.06;;;10.76;80.86
8140;BME280;4111;50.972;7.072;2024-03-17T08:42:48;101737.16;;;10.87;81.17
8140;BME280;4111;50.972;7.072;2024-03-17T08:45:14;101725.09;;;11.02;81.05
8140;BME280;4111;50.972;7.072;2024-03-17T08:47:39;101709.72;;;11.14;80.60
8140;BME280;4111;50.972;7.072;2024-03-17T08:50:05;101705.78;;;11.28;80.02
8140;BME280;4111;50.972;7.072;2024-03-17T08:52:33;101698.78;;;11.51;79.77
8140;BME280;4111;50.972;7.072;2024-03-17T08:54:59;101692.59;;;11.62;79.71
8140;BME280;4111;50.972;7.072;2024-03-17T08:57:25;101694.00;;;11.65;79.20
8140;BME280;4111;50.972;7.072;2024-03-17T08:59:50;101690.94;;;11.61;78.25
8140;BME280;4111;50.972;7.072;2024-03-17T09:02:19;101695.91;;;11.64;77.86
8140;BME280;4111;50.972;7.072;2024-03-17T09:04:47;101700.16;;;11.60;77.70
8140;BME280;4111;50.972;7.072;2024-03-17T09:07:12;101701.22;;;11.59;77.80
8140;BME280;4111;50.972;7.072;2024-03-17T09:09:46;101697.41;;;11.60;77.51
8140;BME280;4111;50.972;7.072;2024-03-17T09:12:12;101692.25;;;11.70;77.73
8140;BME280;4111;50.972;7.072;2024-03-17T09:14:37;101682.00;;;11.84;78.07
8140;BME280;4111;50.972;7.072;2024-03-17T09:17:03;101678.19;;;12.04;78.02
8140;BME280;4111;50.972;7.072;2024-03-17T09:19:28;101672.69;;;12.22;77.17
8140;BME280;4111;50.972;7.072;2024-03-17T09:21:55;101673.28;;;12.36;76.26
8140;BME280;4111;50.972;7.072;2024-03-17T09:24:20;101673.53;;;12.46;76.09
8140;BME280;4111;50.972;7.072;2024-03-17T09:26:46;101679.34;;;12.38;75.43
8140;BME280;4111;50.972;7.072;2024-03-17T09:29:13;101688.41;;;12.32;74.97
8140;BME280;4111;50.972;7.072;2024-03-17T09:31:41;101686.03;;;12.24;74.83
8140;BME280;4111;50.972;7.072;2024-03-17T09:34:07;101687.13;;;12.23;74.61
8140;BME280;4111;50.972;7.072;2024-03-17T09:36:33;101692.78;;;12.21;74.93
8140;BME280;4111;50.972;7.072;2024-03-17T09:38:58;101695.16;;;12.18;74.71
8140;BME280;4111;50.972;7.072;2024-03-17T09:41:26;101693.03;;;12.20;74.76
8140;BME280;4111;50.972;7.072;2024-03-17T09:43:53;101694.56;;;12.27;74.90
8140;BME280;4111;50.972;7.072;2024-03-17T09:46:19;101696.09;;;12.23;74.94
8140;BME280;4111;50.972;7.072;2024-03-17T09:48:45;101693.38;;;12.12;74.31
8140;BME280;4111;50.972;7.072;2024-03-17T09:51:22;101694.56;;;12.16;74.15
8140;BME280;4111;50.972;7.072;2024-03-17T09:53:48;101698.34;;;12.15;73.71
8140;BME280;4111;50.972;7.072;2024-03-17T09:58:48;101694.13;;;12.42;73.76
8140;BME280;4111;50.972;7.072;2024-03-17T10:01:14;101692.81;;;12.45;73.84
8140;BME280;4111;50.972;7.072;2024-03-17T10:03:52;101695.91;;;12.48;73.60
8140;BME280;4111;50.972;7.072;2024-03-17T10:06:21;101697.31;;;12.51;73.51
8140;BME280;4111;50.972;7.072;2024-03-17T10:08:51;101695.44;;;12.63;74.08
8140;BME280;4111;50.972;7.072;2024-03-17T10:11:25;101687.75;;;12.72;73.77
8140;BME280;4111;50.972;7.072;2024-03-17T10:14:02;101687.25;;;12.75;73.82
8140;BME280;4111;50.972;7.072;2024-03-17T10:16:29;101686.06;;;12.71;73.74
8140;BME280;4111;50.972;7.072;2024-03-17T10:19:16;101689.97;;;12.75;73.78
8140;BME280;4111;50.972;7.072;2024-03-17T10:21:45;101689.28;;;12.80;73.71
8140;BME280;4111;50.972;7.072;2024-03-17T10:26:47;101699.91;;;12.58;73.54
8140;BME280;4111;50.972;7.072;2024-03-17T10:29:35;101711.69;;;12.58;73.55
8140;BME280;4111;50.972;7.072;2024-03-17T10:32:12;101705.72;;;12.73;73.76
8140;BME280;4111;50.972;7.072;2024-03-17T10:34:38;101706.22;;;12.82;73.97
8140;BME280;4111;50.972;7.072;2024-03-17T10:39:32;101700.84;;;12.99;73.14
8140;BME280;4111;50.972;7.072;2024-03-17T10:42:01;101694.09;;;13.13;73.67
8140;BME280;4111;50.972;7.072;2024-03-17T10:44:31;101690.72;;;13.35;73.79
8140;BME280;4111;50.972;7.072;2024-03-17T10:46:58;101683.41;;;13.35;72.89
8140;BME280;4111;50.972;7.072;2024-03-17T10:49:31;101693.13;;;13.19;72.27
8140;BME280;4111;50.972;7.072;2024-03-17T10:51:59;101686.00;;;13.18;71.95
8140;BME280;4111;50.972;7.072;2024-03-17T10:54:25;101683.41;;;13.23;72.19
8140;BME280;4111;50.972;7.072;2024-03-17T10:56:55;101681.25;;;13.25;72.19
8140;BME280;4111;50.972;7.072;2024-03-17T10:59:28;101681.50;;;13.36;72.15
8140;BME280;4111;50.972;7.072;2024-03-17T11:02:01;101695.25;;;13.41;72.00
8140;BME280;4111;50.972;7.072;2024-03-17T11:04:28;101691.44;;;13.42;71.54
8140;BME280;4111;50.972;7.072;2024-03-17T11:06:54;101682.72;;;13.57;71.85
8140;BME280;4111;50.972;7.072;2024-03-17T11:09:22;101684.38;;;13.58;71.80
8140;BME280;4111;50.972;7.072;2024-03-17T11:11:48;101681.47;;;13.64;71.59
8140;BME280;4111;50.972;7.072;2024-03-17T11:14:18;101683.75;;;13.67;71.80
8140;BME280;4111;50.972;7.072;2024-03-17T11:16:45;101678.63;;;13.71;71.48
8140;BME280;4111;50.972;7.072;2024-03-17T11:19:15;101677.81;;;13.71;71.21
8140;BME280;4111;50.972;7.072;2024-03-17T11:21:41;101686.88;;;13.76;71.14
8140;BME280;4111;50.972;7.072;2024-03-17T11:24:18;101689.91;;;13.92;71.12
8140;BME280;4111;50.972;7.072;2024-03-17T11:26:44;101686.28;;;14.03;71.36
8140;BME280;4111;50.972;7.072;2024-03-17T11:29:26;101681.09;;;14.18;71.22
8140;BME280;4111;50.972;7.072;2024-03-17T11:31:52;101676.84;;;14.27;71.13
8140;BME280;4111;50.972;7.072;2024-03-17T11:34:37;101680.19;;;14.13;69.94
8140;BME280;4111;50.972;7.072;2024-03-17T11:37:05;101683.66;;;14.25;69.69
8140;BME280;4111;50.972;7.072;2024-03-17T11:39:54;101677.69;;;14.11;69.40
8140;BME280;4111;50.972;7.072;2024-03-17T11:42:26;101684.66;;;14.19;69.60
8140;BME280;4111;50.972;7.072;2024-03-17T11:45:09;101664.03;;;14.28;69.13
8140;BME280;4111;50.972;7.072;2024-03-17T11:47:41;101665.75;;;14.51;69.27
8140;BME280;4111;50.972;7.072;2024-03-17T11:50:08;101663.94;;;14.57;69.63
8140;BME280;4111;50.972;7.072;2024-03-17T11:52:35;101655.56;;;14.46;69.15
8140;BME280;4111;50.972;7.072;2024-03-17T11:55:01;101653.50;;;14.54;69.13
8140;BME280;4111;50.972;7.072;2024-03-17T11:57:27;101648.13;;;14.59;68.72
8140;BME280;4111;50.972;7.072;2024-03-17T11:59:55;101640.41;;;14.56;68.77
8140;BME280;4111;50.972;7.072;2024-03-17T12:02:26;101641.47;;;14.55;68.60
8140;BME280;4111;50.972;7.072;2024-03-17T12:05:01;101634.47;;;14.59;68.67
8140;BME280;4111;50.972;7.072;2024-03-17T12:07:27;101629.31;;;14.62;69.01
8140;BME280;4111;50.972;7.072;2024-03-17T12:09:55;101629.66;;;14.66;68.77
8140;BME280;4111;50.972;7.072;2024-03-17T12:12:27;101624.84;;;14.73;68.96
8140;BME280;4111;50.972;7.072;2024-03-17T12:15:03;101627.56;;;14.73;68.58
8140;BME280;4111;50.972;7.072;2024-03-17T12:17:38;101622.09;;;14.73;68.56
8140;BME280;4111;50.972;7.072;2024-03-17T12:20:04;101613.63;;;14.75;68.47
8140;BME280;4111;50.972;7.072;2024-03-17T12:22:30;101613.38;;;14.76;68.74
8140;BME280;4111;50.972;7.072;2024-03-17T12:25:02;101612.81;;;14.74;68.32
8140;BME280;4111;50.972;7.072;2024-03-17T12:27:27;101606.31;;;14.80;68.22
8140;BME280;4111;50.972;7.072;2024-03-17T12:29:54;101603.91;;;14.84;68.08
8140;BME280;4111;50.972;7.072;2024-03-17T12:32:20;101596.84;;;14.88;68.12
8140;BME280;4111;50.972;7.072;2024-03-17T12:34:55;101602.13;;;14.73;67.63
8140;BME280;4111;50.972;7.072;2024-03-17T12:37:26;101588.31;;;14.84;67.73
8140;BME280;4111;50.972;7.072;2024-03-17T12:40:02;101583.19;;;14.88;67.63
8140;BME280;4111;50.972;7.072;2024-03-17T12:42:29;101585.78;;;15.00;67.57
8140;BME280;4111;50.972;7.072;2024-03-17T12:45:01;101579.84;;;15.08;67.81
8140;BME280;4111;50.972;7.072;2024-03-17T12:47:30;101584.25;;;15.09;67.35
8140;BME280;4111;50.972;7.072;2024-03-17T12:50:00;101577.94;;;15.08;67.37
8140;BME280;4111;50.972;7.072;2024-03-17T12:52:30;101578.78;;;15.09;67.58
8140;BME280;4111;50.972;7.072;2024-03-17T12:55:01;101576.72;;;15.21;67.35
8140;BME280;4111;50.972;7.072;2024-03-17T12:57:46;101571.75;;;15.18;67.16
8140;BME280;4111;50.972;7.072;2024-03-17T13:00:31;101565.56;;;15.01;66.64
8140;BME280;4111;50.972;7.072;2024-03-17T13:03:04;101556.72;;;14.94;66.84
8140;BME280;4111;50.972;7.072;2024-03-17T13:05:30;101544.44;;;14.96;67.06
8140;BME280;4111;50.972;7.072;2024-03-17T13:07:57;101548.59;;;14.99;67.54
8140;BME280;4111;50.972;7.072;2024-03-17T13:10:24;101548.53;;;14.94;67.45
8140;BME280;4111;50.972;7.072;2024-03-17T13:13:01;101546.47;;;15.06;68.03
8140;BME280;4111;50.972;7.072;2024-03-17T13:15:27;101546.78;;;15.10;67.73
8140;BME280;4111;50.972;7.072;2024-03-17T13:17:55;101534.47;;;15.07;67.35
8140;BME280;4111;50.972;7.072;2024-03-17T13:20:21;101524.09;;;15.09;67.41
8140;BME280;4111;50.972;7.072;2024-03-17T13:22:47;101522.94;;;15.05;67.28
8140;BME280;4111;50.972;7.072;2024-03-17T13:25:20;101516.84;;;14.98;67.12